sensor_id;sensor_type;location;lat;lon;timestamp;temperature;humidity
48912;DHT22;34722;52.108;5.044;2022-11-20T00:01:07;-3.20;99.90
48912;DHT22;34722;52.108;5.044;2022-11-20T00:03:33;-3.20;99.90
48912;DHT22;34722;52.108;5.044;2022-11-20T00:06:06;-3.10;99.90
48912;DHT22;34722;52.108;5.044;2022-11-20T00:08:32;-3.20;99.90
48912;DHT22;34722;52.108;5.044;2022-11-20T00:11:09;-3.20;99.90
48912;DHT22;34722;52.108;5.044;2022-11-20T00:13:34;-3.10;99.90
48912;DHT22;34722;52.108;5.044;2022-11-20T00:16:02;-3.10;99.90
48912;DHT22;34722;52.108;5.044;2022-11-20T00:18:29;-3.10;99.90
48912;DHT22;34722;52.108;5.044;2022-11-20T00:21:01;-3.10;99.90
48912;DHT22;34722;52.108;5.044;2022-11-20T00:23:27;-3.10;99.90
48912;DHT22;34722;52.108;5.044;2022-11-20T00:25:53;-3.10;99.90
48912;DHT22;34722;52.108;5.044;2022-11-20T00:28:19;-3.00;99.90
48912;DHT22;34722;52.108;5.044;2022-11-20T00:30:45;-2.90;99.90
48912;DHT22;34722;52.108;5.044;2022-11-20T00:33:11;-2.90;99.90
48912;DHT22;34722;52.108;5.044;2022-11-20T00:35:36;-2.90;99.90
48912;DHT22;34722;52.108;5.044;2022-11-20T00:38:02;-3.00;99.90
48912;DHT22;34722;52.108;5.044;2022-11-20T00:40:28;-3.00;99.90
48912;DHT22;34722;52.108;5.044;2022-11-20T00:42:53;-3.10;99.90
48912;DHT22;34722;52.108;5.044;2022-11-20T00:45:19;-3.10;99.90
48912;DHT22;34722;52.108;5.044;2022-11-20T00:47:44;-3.20;99.90
48912;DHT22;34722;52.108;5.044;2022-11-20T00:50:10;-3.20;99.90
48912;DHT22;34722;52.108;5.044;2022-11-20T00:52:36;-3.20;99.90
48912;DHT22;34722;52.108;5.044;2022-11-20T00:55:01;-3.30;99.90
48912;DHT22;34722;52.108;5.044;2022-11-20T00:57:27;-3.30;99.90
48912;DHT22;34722;52.108;5.044;2022-11-20T00:59:52;-3.40;99.90
48912;DHT22;34722;52.108;5.044;2022-11-20T01:02:18;-3.50;99.90
48912;DHT22;34722;52.108;5.044;2022-11-20T01:04:44;-3.50;99.90
48912;DHT22;34722;52.108;5.044;2022-11-20T01:07:10;-3.50;99.90
48912;DHT22;34722;52.108;5.044;2022-11-20T01:09:35;-3.60;99.90
48912;DHT22;34722;52.108;5.044;2022-11-20T01:12:01;-3.60;99.90
48912;DHT22;34722;52.108;5.044;2022-11-20T01:14:26;-3.60;99.90
48912;DHT22;34722;52.108;5.044;2022-11-20T01:16:52;-3.60;99.90
48912;DHT22;34722;52.108;5.044;2022-11-20T01:19:20;-3.70;99.90
48912;DHT22;34722;52.108;5.044;2022-11-20T01:21:49;-3.70;99.90
48912;DHT22;34722;52.108;5.044;2022-11-20T01:24:16;-3.60;99.90
48912;DHT22;34722;52.108;5.044;2022-11-20T01:26:44;-3.70;99.90
48912;DHT22;34722;52.108;5.044;2022-11-20T01:29:14;-3.70;99.90
48912;DHT22;34722;52.108;5.044;2022-11-20T01:31:40;-3.60;99.90
48912;DHT22;34722;52.108;5.044;2022-11-20T01:34:15;-3.50;99.90
48912;DHT22;34722;52.108;5.044;2022-11-20T01:36:42;-3.50;99.90
48912;DHT22;34722;52.108;5.044;2022-11-20T01:39:20;-3.50;99.90
48912;DHT22;34722;52.108;5.044;2022-11-20T01:41:48;-3.60;99.90
48912;DHT22;34722;52.108;5.044;2022-11-20T01:44:53;-3.50;99.90
48912;DHT22;34722;52.108;5.044;2022-11-20T01:47:51;-3.60;99.90
48912;DHT22;34722;52.108;5.044;2022-11-20T01:50:26;-3.60;99.90
48912;DHT22;34722;52.108;5.044;2022-11-20T01:53:02;-3.70;99.90
48912;DHT22;34722;52.108;5.044;2022-11-20T01:55:37;-3.60;99.90
48912;DHT22;34722;52.108;5.044;2022-11-20T01:58:05;-3.70;99.90
48912;DHT22;34722;52.108;5.044;2022-11-20T02:00:31;-3.70;99.90
48912;DHT22;34722;52.108;5.044;2022-11-20T02:02:59;-3.80;99.90
48912;DHT22;34722;52.108;5.044;2022-11-20T02:05:43;-3.80;99.90
48912;DHT22;34722;52.108;5.044;2022-11-20T02:08:10;-3.80;99.90
48912;DHT22;34722;52.108;5.044;2022-11-20T02:10:37;-3.70;99.90
48912;DHT22;34722;52.108;5.044;2022-11-20T02:13:03;-3.50;99.90
48912;DHT22;34722;52.108;5.044;2022-11-20T02:15:47;-3.40;99.90
48912;DHT22;34722;52.108;5.044;2022-11-20T02:18:16;-3.30;99.90
48912;DHT22;34722;52.108;5.044;2022-11-20T02:20:44;-3.30;99.90
48912;DHT22;34722;52.108;5.044;2022-11-20T02:23:33;-3.30;99.90
48912;DHT22;34722;52.108;5.044;2022-11-20T02:26:02;-3.40;99.90
48912;DHT22;34722;52.108;5.044;2022-11-20T02:28:30;-3.40;99.90
48912;DHT22;34722;52.108;5.044;2022-11-20T02:30:56;-3.50;99.90
48912;DHT22;34722;52.108;5.044;2022-11-20T02:33:22;-3.60;99.90
48912;DHT22;34722;52.108;5.044;2022-11-20T02:35:47;-3.60;99.90
48912;DHT22;34722;52.108;5.044;2022-11-20T02:38:14;-3.60;99.90
48912;DHT22;34722;52.108;5.044;2022-11-20T02:40:40;-3.60;99.90
48912;DHT22;34722;52.108;5.044;2022-11-20T02:43:06;-3.70;99.90
48912;DHT22;34722;52.108;5.044;2022-11-20T02:45:33;-3.80;99.90
48912;DHT22;34722;52.108;5.044;2022-11-20T02:47:59;-3.80;99.90
48912;DHT22;34722;52.108;5.044;2022-11-20T02:50:24;-3.90;99.90
48912;DHT22;34722;52.108;5.044;2022-11-20T02:52:53;-3.90;99.90
48912;DHT22;34722;52.108;5.044;2022-11-20T02:55:21;-3.90;99.90
48912;DHT22;34722;52.108;5.044;2022-11-20T02:57:47;-3.90;99.90
48912;DHT22;34722;52.108;5.044;2022-11-20T03:00:13;-3.90;99.90
48912;DHT22;34722;52.108;5.044;2022-11-20T03:02:42;-3.90;99.90
48912;DHT22;34722;52.108;5.044;2022-11-20T03:05:08;-3.90;99.90
48912;DHT22;34722;52.108;5.044;2022-11-20T03:07:34;-4.00;99.90
48912;DHT22;34722;52.108;5.044;2022-11-20T03:09:59;-4.00;99.90
48912;DHT22;34722;52.108;5.044;2022-11-20T03:12:25;-3.90;99.90
48912;DHT22;34722;52.108;5.044;2022-11-20T03:14:53;-3.90;99.90
48912;DHT22;34722;52.108;5.044;2022-11-20T03:17:19;-3.90;99.90
48912;DHT22;34722;52.108;5.044;2022-11-20T03:19:44;-3.90;99.90
48912;DHT22;34722;52.108;5.044;2022-11-20T03:22:10;-3.90;99.90
48912;DHT22;34722;52.108;5.044;2022-11-20T03:24:36;-3.90;99.90
48912;DHT22;34722;52.108;5.044;2022-11-20T03:27:01;-3.90;99.90
48912;DHT22;34722;52.108;5.044;2022-11-20T03:29:30;-3.80;99.90
48912;DHT22;34722;52.108;5.044;2022-11-20T03:31:56;-3.90;99.90
48912;DHT22;34722;52.108;5.044;2022-11-20T03:34:22;-3.90;99.90
48912;DHT22;34722;52.108;5.044;2022-11-20T03:36:48;-3.90;99.90
48912;DHT22;34722;52.108;5.044;2022-11-20T03:39:14;-3.90;99.90
48912;DHT22;34722;52.108;5.044;2022-11-20T03:41:41;-3.80;99.90
48912;DHT22;34722;52.108;5.044;2022-11-20T03:44:09;-3.90;99.90
48912;DHT22;34722;52.108;5.044;2022-11-20T03:46:35;-3.90;99.90
48912;DHT22;34722;52.108;5.044;2022-11-20T03:49:01;-3.90;99.90
48912;DHT22;34722;52.108;5.044;2022-11-20T03:51:36;-3.90;99.90
48912;DHT22;34722;52.108;5.044;2022-11-20T03:54:05;-4.00;99.90
48912;DHT22;34722;52.108;5.044;2022-11-20T03:56:34;-4.00;99.90
48912;DHT22;34722;52.108;5.044;2022-11-20T03:59:00;-4.00;99.90
48912;DHT22;34722;52.108;5.044;2022-11-20T04:01:28;-4.00;99.90
48912;DHT22;34722;52.108;5.044;2022-11-20T04:03:55;-4.10;99.90
48912;DHT22;34722;52.108;5.044;2022-11-20T04:06:24;-4.10;99.90
48912;DHT22;34722;52.108;5.044;2022-11-20T04:08:51;-4.10;99.90
48912;DHT22;34722;52.108;5.044;2022-11-20T04:11:20;-4.10;99.90
48912;DHT22;34722;52.108;5.044;2022-11-20T04:13:49;-4.10;99.90
48912;DHT22;34722;52.108;5.044;2022-11-20T04:16:15;-4.10;99.90
48912;DHT22;34722;52.108;5.044;2022-11-20T04:18:41;-4.20;99.90
48912;DHT22;34722;52.108;5.044;2022-11-20T04:21:09;-4.20;99.90
48912;DHT22;34722;52.108;5.044;2022-11-20T04:23:35;-4.20;99.90
48912;DHT22;34722;52.108;5.044;2022-11-20T04:26:03;-4.20;99.90
48912;DHT22;34722;52.108;5.044;2022-11-20T04:28:29;-4.30;99.90
48912;DHT22;34722;52.108;5.044;2022-11-20T04:30:54;-4.30;99.90
48912;DHT22;34722;52.108;5.044;2022-11-20T04:33:26;-4.40;99.90
48912;DHT22;34722;52.108;5.044;2022-11-20T04:35:51;-4.40;99.90
48912;DHT22;34722;52.108;5.044;2022-11-20T04:38:17;-4.40;99.90
48912;DHT22;34722;52.108;5.044;2022-11-20T04:40:43;-4.40;99.90
48912;DHT22;34722;52.108;5.044;2022-11-20T04:43:08;-4.40;99.90
48912;DHT22;34722;52.108;5.044;2022-11-20T04:45:34;-4.30;99.90
48912;DHT22;34722;52.108;5.044;2022-11-20T04:48:00;-4.30;99.90
48912;DHT22;34722;52.108;5.044;2022-11-20T04:50:26;-4.20;99.90
48912;DHT22;34722;52.108;5.044;2022-11-20T04:52:51;-4.20;99.90
48912;DHT22;34722;52.108;5.044;2022-11-20T04:55:17;-4.30;99.90
48912;DHT22;34722;52.108;5.044;2022-11-20T04:57:43;-4.30;99.90
48912;DHT22;34722;52.108;5.044;2022-11-20T05:00:09;-4.20;99.90
48912;DHT22;34722;52.108;5.044;2022-11-20T05:02:35;-4.10;99.90
48912;DHT22;34722;52.108;5.044;2022-11-20T05:05:00;-4.00;99.90
48912;DHT22;34722;52.108;5.044;2022-11-20T05:07:26;-4.10;99.90
48912;DHT22;34722;52.108;5.044;2022-11-20T05:09:52;-4.10;99.90
48912;DHT22;34722;52.108;5.044;2022-11-20T05:12:17;-4.20;99.90
48912;DHT22;34722;52.108;5.044;2022-11-20T05:14:43;-4.20;99.90
48912;DHT22;34722;52.108;5.044;2022-11-20T05:17:12;-4.20;99.90
48912;DHT22;34722;52.108;5.044;2022-11-20T05:19:37;-4.20;99.90
48912;DHT22;34722;52.108;5.044;2022-11-20T05:22:04;-4.20;99.90
48912;DHT22;34722;52.108;5.044;2022-11-20T05:24:29;-4.30;99.90
48912;DHT22;34722;52.108;5.044;2022-11-20T05:26:55;-4.20;99.90
48912;DHT22;34722;52.108;5.044;2022-11-20T05:29:21;-4.30;99.90
48912;DHT22;34722;52.108;5.044;2022-11-20T05:31:46;-4.20;99.90
48912;DHT22;34722;52.108;5.044;2022-11-20T05:34:12;-4.20;99.90
48912;DHT22;34722;52.108;5.044;2022-11-20T05:36:38;-4.30;99.90
48912;DHT22;34722;52.108;5.044;2022-11-20T05:39:03;-4.20;99.90
48912;DHT22;34722;52.108;5.044;2022-11-20T05:41:29;-4.20;99.90
48912;DHT22;34722;52.108;5.044;2022-11-20T05:43:56;-4.30;99.90
48912;DHT22;34722;52.108;5.044;2022-11-20T05:46:23;-4.30;99.90
48912;DHT22;34722;52.108;5.044;2022-11-20T05:48:48;-4.30;99.90
48912;DHT22;34722;52.108;5.044;2022-11-20T05:51:16;-4.30;99.90
48912;DHT22;34722;52.108;5.044;2022-11-20T05:53:48;-4.30;99.90
48912;DHT22;34722;52.108;5.044;2022-11-20T05:56:16;-4.30;99.90
48912;DHT22;34722;52.108;5.044;2022-11-20T05:58:42;-4.40;99.90
48912;DHT22;34722;52.108;5.044;2022-11-20T06:01:18;-4.40;99.90
48912;DHT22;34722;52.108;5.044;2022-11-20T06:03:44;-4.30;99.90
48912;DHT22;34722;52.108;5.044;2022-11-20T06:06:16;-4.30;99.90
48912;DHT22;34722;52.108;5.044;2022-11-20T06:08:43;-4.30;99.90
48912;DHT22;34722;52.108;5.044;2022-11-20T06:11:11;-4.30;99.90
48912;DHT22;34722;52.108;5.044;2022-11-20T06:13:44;-4.20;99.90
48912;DHT22;34722;52.108;5.044;2022-11-20T06:16:14;-4.20;99.90
48912;DHT22;34722;52.108;5.044;2022-11-20T06:18:40;-4.10;99.90
48912;DHT22;34722;52.108;5.044;2022-11-20T06:21:09;-4.00;99.90
48912;DHT22;34722;52.108;5.044;2022-11-20T06:23:35;-3.90;99.90
48912;DHT22;34722;52.108;5.044;2022-11-20T06:31:21;-3.70;99.90
48912;DHT22;34722;52.108;5.044;2022-11-20T06:33:47;-3.60;99.90
48912;DHT22;34722;52.108;5.044;2022-11-20T06:36:15;-3.50;99.90
48912;DHT22;34722;52.108;5.044;2022-11-20T06:38:41;-3.40;99.90
48912;DHT22;34722;52.108;5.044;2022-11-20T06:41:11;-3.20;99.90
48912;DHT22;34722;52.108;5.044;2022-11-20T06:43:37;-3.10;99.90
48912;DHT22;34722;52.108;5.044;2022-11-20T06:46:03;-3.10;99.90
48912;DHT22;34722;52.108;5.044;2022-11-20T06:48:29;-3.10;99.90
48912;DHT22;34722;52.108;5.044;2022-11-20T06:50:57;-3.00;99.90
48912;DHT22;34722;52.108;5.044;2022-11-20T06:53:24;-2.90;99.90
48912;DHT22;34722;52.108;5.044;2022-11-20T06:55:50;-2.80;99.90
48912;DHT22;34722;52.108;5.044;2022-11-20T06:58:17;-2.90;99.90
48912;DHT22;34722;52.108;5.044;2022-11-20T07:00:43;-2.80;99.90
48912;DHT22;34722;52.108;5.044;2022-11-20T07:03:10;-2.80;99.90
48912;DHT22;34722;52.108;5.044;2022-11-20T07:05:36;-2.80;99.90
48912;DHT22;34722;52.108;5.044;2022-11-20T07:08:04;-2.80;99.90
48912;DHT22;34722;52.108;5.044;2022-11-20T07:10:30;-2.90;99.90
48912;DHT22;34722;52.108;5.044;2022-11-20T07:12:56;-2.80;99.90
48912;DHT22;34722;52.108;5.044;2022-11-20T07:15:23;-2.70;99.90
48912;DHT22;34722;52.108;5.044;2022-11-20T07:17:49;-2.70;99.90
48912;DHT22;34722;52.108;5.044;2022-11-20T07:20:15;-2.70;99.90
48912;DHT22;34722;52.108;5.044;2022-11-20T07:22:41;-2.60;99.90
48912;DHT22;34722;52.108;5.044;2022-11-20T07:25:07;-2.50;99.90
48912;DHT22;34722;52.108;5.044;2022-11-20T07:27:33;-2.50;99.90
48912;DHT22;34722;52.108;5.044;2022-11-20T07:29:59;-2.30;99.90
48912;DHT22;34722;52.108;5.044;2022-11-20T07:32:26;-2.20;99.90
48912;DHT22;34722;52.108;5.044;2022-11-20T07:34:51;-2.00;99.90
48912;DHT22;34722;52.108;5.044;2022-11-20T07:37:18;-1.80;99.90
48912;DHT22;34722;52.108;5.044;2022-11-20T07:39:43;-1.70;99.90
48912;DHT22;34722;52.108;5.044;2022-11-20T07:42:09;-1.60;99.90
48912;DHT22;34722;52.108;5.044;2022-11-20T07:44:35;-1.40;99.90
48912;DHT22;34722;52.108;5.044;2022-11-20T07:47:01;-1.30;99.90
48912;DHT22;34722;52.108;5.044;2022-11-20T07:49:27;-1.10;99.90
48912;DHT22;34722;52.108;5.044;2022-11-20T07:51:53;-1.00;99.90
48912;DHT22;34722;52.108;5.044;2022-11-20T07:54:22;-0.90;99.90
48912;DHT22;34722;52.108;5.044;2022-11-20T07:56:48;-0.90;99.90
48912;DHT22;34722;52.108;5.044;2022-11-20T07:59:14;-0.90;99.90
48912;DHT22;34722;52.108;5.044;2022-11-20T08:01:41;-0.90;99.90
48912;DHT22;34722;52.108;5.044;2022-11-20T08:04:07;-0.90;99.90
48912;DHT22;34722;52.108;5.044;2022-11-20T08:06:33;-0.60;99.90
48912;DHT22;34722;52.108;5.044;2022-11-20T08:08:58;0.50;99.90
48912;DHT22;34722;52.108;5.044;2022-11-20T08:11:24;1.20;99.90
48912;DHT22;34722;52.108;5.044;2022-11-20T08:14:08;1.00;99.90
48912;DHT22;34722;52.108;5.044;2022-11-20T08:16:41;0.60;99.90
48912;DHT22;34722;52.108;5.044;2022-11-20T08:19:07;0.20;99.90
48912;DHT22;34722;52.108;5.044;2022-11-20T08:21:33;0.00;99.90
48912;DHT22;34722;52.108;5.044;2022-11-20T08:23:59;-0.10;99.90
48912;DHT22;34722;52.108;5.044;2022-11-20T08:26:25;-0.20;99.90
48912;DHT22;34722;52.108;5.044;2022-11-20T08:28:58;-0.30;99.90
48912;DHT22;34722;52.108;5.044;2022-11-20T08:31:24;-0.40;99.90
48912;DHT22;34722;52.108;5.044;2022-11-20T08:33:51;-0.40;99.90
48912;DHT22;34722;52.108;5.044;2022-11-20T08:36:17;-0.40;99.90
48912;DHT22;34722;52.108;5.044;2022-11-20T08:38:48;-0.40;99.90
48912;DHT22;34722;52.108;5.044;2022-11-20T08:41:14;-0.40;99.90
48912;DHT22;34722;52.108;5.044;2022-11-20T08:43:57;-0.40;99.90
48912;DHT22;34722;52.108;5.044;2022-11-20T08:46:24;-0.40;99.90
48912;DHT22;34722;52.108;5.044;2022-11-20T08:48:51;-0.40;99.90
48912;DHT22;34722;52.108;5.044;2022-11-20T08:51:17;-0.40;99.90
48912;DHT22;34722;52.108;5.044;2022-11-20T08:53:43;-0.30;99.90
48912;DHT22;34722;52.108;5.044;2022-11-20T08:56:09;-0.30;99.90
48912;DHT22;34722;52.108;5.044;2022-11-20T08:58:36;-0.30;99.90
48912;DHT22;34722;52.108;5.044;2022-11-20T09:01:02;-0.30;99.90
48912;DHT22;34722;52.108;5.044;2022-11-20T09:03:27;-0.10;99.90
48912;DHT22;34722;52.108;5.044;2022-11-20T09:05:58;0.00;99.90
48912;DHT22;34722;52.108;5.044;2022-11-20T09:08:24;0.00;99.90
48912;DHT22;34722;52.108;5.044;2022-11-20T09:10:54;0.10;99.90
48912;DHT22;34722;52.108;5.044;2022-11-20T09:13:21;0.20;99.90
48912;DHT22;34722;52.108;5.044;2022-11-20T09:15:55;0.30;99.90
48912;DHT22;34722;52.108;5.044;2022-11-20T09:18:22;0.40;99.90
48912;DHT22;34722;52.108;5.044;2022-11-20T09:20:47;0.70;99.90
48912;DHT22;34722;52.108;5.044;2022-11-20T09:23:14;0.80;99.90
48912;DHT22;34722;52.108;5.044;2022-11-20T09:25:40;1.00;99.90
48912;DHT22;34722;52.108;5.044;2022-11-20T09:28:05;1.10;99.90
48912;DHT22;34722;52.108;5.044;2022-11-20T09:30:31;1.50;99.90
48912;DHT22;34722;52.108;5.044;2022-11-20T09:32:57;1.80;99.90
48912;DHT22;34722;52.108;5.044;2022-11-20T09:35:22;2.00;88.00
48912;DHT22;34722;52.108;5.044;2022-11-20T09:37:48;2.10;67.20
48912;DHT22;34722;52.108;5.044;2022-11-20T09:40:27;2.20;53.80
48912;DHT22;34722;52.108;5.044;2022-11-20T09:48:18;2.10;45.80
48912;DHT22;34722;52.108;5.044;2022-11-20T09:50:53;2.00;34.90
48912;DHT22;34722;52.108;5.044;2022-11-20T09:53:23;2.00;36.70
48912;DHT22;34722;52.108;5.044;2022-11-20T09:55:52;2.10;40.90
48912;DHT22;34722;52.108;5.044;2022-11-20T09:58:36;2.10;32.20
48912;DHT22;34722;52.108;5.044;2022-11-20T10:01:14;2.20;37.30
48912;DHT22;34722;52.108;5.044;2022-11-20T10:04:16;2.30;26.90
48912;DHT22;34722;52.108;5.044;2022-11-20T10:06:50;2.20;26.30
48912;DHT22;34722;52.108;5.044;2022-11-20T10:12:04;2.10;25.10
48912;DHT22;34722;52.108;5.044;2022-11-20T10:14:53;2.10;21.70
48912;DHT22;34722;52.108;5.044;2022-11-20T10:20:26;2.10;24.20
48912;DHT22;34722;52.108;5.044;2022-11-20T10:25:56;2.10;20.10
48912;DHT22;34722;52.108;5.044;2022-11-20T10:31:34;2.20;25.90
48912;DHT22;34722;52.108;5.044;2022-11-20T10:34:07;2.10;36.90
48912;DHT22;34722;52.108;5.044;2022-11-20T10:36:45;2.10;40.90
48912;DHT22;34722;52.108;5.044;2022-11-20T10:39:16;2.20;41.90
48912;DHT22;34722;52.108;5.044;2022-11-20T10:41:46;2.20;40.00
48912;DHT22;34722;52.108;5.044;2022-11-20T10:44:15;2.20;42.10
48912;DHT22;34722;52.108;5.044;2022-11-20T10:47:16;2.10;47.20
48912;DHT22;34722;52.108;5.044;2022-11-20T10:49:53;2.10;51.80
48912;DHT22;34722;52.108;5.044;2022-11-20T10:52:45;2.10;57.20
48912;DHT22;34722;52.108;5.044;2022-11-20T10:55:33;2.20;66.70
48912;DHT22;34722;52.108;5.044;2022-11-20T11:01:11;2.30;72.00
48912;DHT22;34722;52.108;5.044;2022-11-20T11:03:38;2.40;81.30
48912;DHT22;34722;52.108;5.044;2022-11-20T11:06:34;2.50;82.10
48912;DHT22;34722;52.108;5.044;2022-11-20T11:09:06;2.60;83.80
48912;DHT22;34722;52.108;5.044;2022-11-20T11:11:34;2.60;90.70
48912;DHT22;34722;52.108;5.044;2022-11-20T11:14:07;2.50;91.80
48912;DHT22;34722;52.108;5.044;2022-11-20T11:16:32;2.50;93.10
48912;DHT22;34722;52.108;5.044;2022-11-20T11:19:06;2.60;98.50
48912;DHT22;34722;52.108;5.044;2022-11-20T11:21:32;2.60;98.70
48912;DHT22;34722;52.108;5.044;2022-11-20T11:24:00;2.60;99.90
48912;DHT22;34722;52.108;5.044;2022-11-20T11:26:26;2.50;99.90
48912;DHT22;34722;52.108;5.044;2022-11-20T11:29:04;2.50;99.90
48912;DHT22;34722;52.108;5.044;2022-11-20T11:31:32;2.40;99.90
48912;DHT22;34722;52.108;5.044;2022-11-20T11:36:32;2.20;99.90
48912;DHT22;34722;52.108;5.044;2022-11-20T11:38:58;2.20;99.90
48912;DHT22;34722;52.108;5.044;2022-11-20T11:41:29;2.20;99.90
48912;DHT22;34722;52.108;5.044;2022-11-20T11:44:01;2.10;99.90
48912;DHT22;34722;52.108;5.044;2022-11-20T11:46:55;2.10;99.90
48912;DHT22;34722;52.108;5.044;2022-11-20T11:49:22;2.20;99.90
48912;DHT22;34722;52.108;5.044;2022-11-20T11:57:49;2.20;99.90
48912;DHT22;34722;52.108;5.044;2022-11-20T12:00:21;2.20;99.90
48912;DHT22;34722;52.108;5.044;2022-11-20T12:02:55;2.30;99.90
48912;DHT22;34722;52.108;5.044;2022-11-20T12:05:27;2.30;99.90
48912;DHT22;34722;52.108;5.044;2022-11-20T12:08:06;2.30;99.90
48912;DHT22;34722;52.108;5.044;2022-11-20T12:15:59;2.40;99.90
48912;DHT22;34722;52.108;5.044;2022-11-20T12:18:25;2.30;99.90
48912;DHT22;34722;52.108;5.044;2022-11-20T12:38:25;2.50;99.90
48912;DHT22;34722;52.108;5.044;2022-11-20T12:50:28;2.70;99.90
48912;DHT22;34722;52.108;5.044;2022-11-20T12:53:05;2.70;99.90
48912;DHT22;34722;52.108;5.044;2022-11-20T13:07:06;2.80;99.90
48912;DHT22;34722;52.108;5.044;2022-11-20T13:09:42;2.80;99.90
48912;DHT22;34722;52.108;5.044;2022-11-20T13:14:40;2.80;99.90
48912;DHT22;34722;52.108;5.044;2022-11-20T13:17:16;2.80;99.90
48912;DHT22;34722;52.108;5.044;2022-11-20T13:19:51;2.80;99.90
48912;DHT22;34722;52.108;5.044;2022-11-20T13:22:25;2.80;99.90
48912;DHT22;34722;52.108;5.044;2022-11-20T13:24:51;2.80;99.90
48912;DHT22;34722;52.108;5.044;2022-11-20T13:27:20;2.80;99.90
48912;DHT22;34722;52.108;5.044;2022-11-20T13:29:58;2.90;99.90
48912;DHT22;34722;52.108;5.044;2022-11-20T13:32:26;2.90;99.90
48912;DHT22;34722;52.108;5.044;2022-11-20T13:35:00;2.90;99.90
48912;DHT22;34722;52.108;5.044;2022-11-20T13:37:36;2.90;99.90
48912;DHT22;34722;52.108;5.044;2022-11-20T13:45:26;2.90;99.90
48912;DHT22;34722;52.108;5.044;2022-11-20T13:47:53;2.90;99.90
48912;DHT22;34722;52.108;5.044;2022-11-20T13:50:26;2.80;99.90
48912;DHT22;34722;52.108;5.044;2022-11-20T13:55:46;2.80;99.90
48912;DHT22;34722;52.108;5.044;2022-11-20T14:01:20;2.90;99.90
48912;DHT22;34722;52.108;5.044;2022-11-20T14:03:47;2.90;99.90
48912;DHT22;34722;52.108;5.044;2022-11-20T14:06:34;3.00;99.90
48912;DHT22;34722;52.108;5.044;2022-11-20T14:09:03;3.00;99.90
48912;DHT22;34722;52.108;5.044;2022-11-20T14:11:30;3.00;99.90
48912;DHT22;34722;52.108;5.044;2022-11-20T14:14:10;3.00;99.90
48912;DHT22;34722;52.108;5.044;2022-11-20T14:16:38;3.00;99.90
48912;DHT22;34722;52.108;5.044;2022-11-20T14:21:53;3.00;99.90
48912;DHT22;34722;52.108;5.044;2022-11-20T14:24:23;3.00;99.90
48912;DHT22;34722;52.108;5.044;2022-11-20T14:26:50;3.00;99.90
48912;DHT22;34722;52.108;5.044;2022-11-20T14:29:19;3.00;99.90
48912;DHT22;34722;52.108;5.044;2022-11-20T14:31:46;3.00;99.90
48912;DHT22;34722;52.108;5.044;2022-11-20T14:34:27;3.00;99.90
48912;DHT22;34722;52.108;5.044;2022-11-20T14:36:57;3.00;99.90
48912;DHT22;34722;52.108;5.044;2022-11-20T14:39:48;3.00;99.90
48912;DHT22;34722;52.108;5.044;2022-11-20T14:42:20;3.00;99.90
48912;DHT22;34722;52.108;5.044;2022-11-20T14:44:47;3.10;99.90
48912;DHT22;34722;52.108;5.044;2022-11-20T14:47:35;3.10;99.90
48912;DHT22;34722;52.108;5.044;2022-11-20T14:50:02;3.10;99.90
48912;DHT22;34722;52.108;5.044;2022-11-20T14:52:28;3.10;99.90
48912;DHT22;34722;52.108;5.044;2022-11-20T14:54:55;3.10;99.90
48912;DHT22;34722;52.108;5.044;2022-11-20T15:00:03;3.10;99.90
48912;DHT22;34722;52.108;5.044;2022-11-20T15:02:30;3.20;99.90
48912;DHT22;34722;52.108;5.044;2022-11-20T15:05:01;3.10;99.90
48912;DHT22;34722;52.108;5.044;2022-11-20T15:07:34;3.10;99.90
48912;DHT22;34722;52.108;5.044;2022-11-20T15:12:36;3.20;99.90
48912;DHT22;34722;52.108;5.044;2022-11-20T15:15:03;3.20;99.90
48912;DHT22;34722;52.108;5.044;2022-11-20T15:17:31;3.20;99.90
48912;DHT22;34722;52.108;5.044;2022-11-20T15:19:58;3.30;99.90
48912;DHT22;34722;52.108;5.044;2022-11-20T15:22:24;3.30;99.90
48912;DHT22;34722;52.108;5.044;2022-11-20T15:24:50;3.30;99.90
48912;DHT22;34722;52.108;5.044;2022-11-20T15:27:15;3.30;99.90
48912;DHT22;34722;52.108;5.044;2022-11-20T15:29:42;3.30;99.90
48912;DHT22;34722;52.108;5.044;2022-11-20T15:32:08;3.40;99.90
48912;DHT22;34722;52.108;5.044;2022-11-20T15:34:34;3.40;99.90
48912;DHT22;34722;52.108;5.044;2022-11-20T15:37:00;3.40;99.90
48912;DHT22;34722;52.108;5.044;2022-11-20T15:39:26;3.40;99.90
48912;DHT22;34722;52.108;5.044;2022-11-20T15:41:51;3.40;99.90
48912;DHT22;34722;52.108;5.044;2022-11-20T15:44:17;3.50;99.90
48912;DHT22;34722;52.108;5.044;2022-11-20T15:46:43;3.50;99.90
48912;DHT22;34722;52.108;5.044;2022-11-20T15:49:15;3.40;99.90
48912;DHT22;34722;52.108;5.044;2022-11-20T15:51:45;3.50;99.90
48912;DHT22;34722;52.108;5.044;2022-11-20T15:54:14;3.40;99.90
48912;DHT22;34722;52.108;5.044;2022-11-20T15:56:40;3.50;99.90
48912;DHT22;34722;52.108;5.044;2022-11-20T15:59:08;3.40;99.90
48912;DHT22;34722;52.108;5.044;2022-11-20T16:01:34;3.50;99.90
48912;DHT22;34722;52.108;5.044;2022-11-20T16:04:01;3.50;99.90
48912;DHT22;34722;52.108;5.044;2022-11-20T16:06:26;3.50;99.90
48912;DHT22;34722;52.108;5.044;2022-11-20T16:08:52;3.50;99.90
48912;DHT22;34722;52.108;5.044;2022-11-20T16:11:18;3.50;99.90
48912;DHT22;34722;52.108;5.044;2022-11-20T16:13:44;3.50;99.90
48912;DHT22;34722;52.108;5.044;2022-11-20T16:16:35;3.50;99.90
48912;DHT22;34722;52.108;5.044;2022-11-20T16:19:00;3.50;99.90
48912;DHT22;34722;52.108;5.044;2022-11-20T16:21:28;3.50;99.90
48912;DHT22;34722;52.108;5.044;2022-11-20T16:24:00;3.40;99.90
48912;DHT22;34722;52.108;5.044;2022-11-20T16:26:26;3.40;99.90
48912;DHT22;34722;52.108;5.044;2022-11-20T16:28:53;3.40;99.90
48912;DHT22;34722;52.108;5.044;2022-11-20T16:31:19;3.40;99.90
48912;DHT22;34722;52.108;5.044;2022-11-20T16:33:52;3.50;99.90
48912;DHT22;34722;52.108;5.044;2022-11-20T16:36:19;3.40;99.90
48912;DHT22;34722;52.108;5.044;2022-11-20T16:38:44;3.40;99.90
48912;DHT22;34722;52.108;5.044;2022-11-20T16:41:10;3.50;99.90
48912;DHT22;34722;52.108;5.044;2022-11-20T16:43:53;3.40;99.90
48912;DHT22;34722;52.108;5.044;2022-11-20T16:46:20;3.40;99.90
48912;DHT22;34722;52.108;5.044;2022-11-20T16:48:54;3.40;99.90
48912;DHT22;34722;52.108;5.044;2022-11-20T16:51:20;3.50;99.90
48912;DHT22;34722;52.108;5.044;2022-11-20T16:53:45;3.50;99.90
48912;DHT22;34722;52.108;5.044;2022-11-20T16:56:16;3.50;99.90
48912;DHT22;34722;52.108;5.044;2022-11-20T16:58:47;3.50;99.90
48912;DHT22;34722;52.108;5.044;2022-11-20T17:01:15;3.50;99.90
48912;DHT22;34722;52.108;5.044;2022-11-20T17:03:43;3.50;99.90
48912;DHT22;34722;52.108;5.044;2022-11-20T17:06:17;3.50;99.90
48912;DHT22;34722;52.108;5.044;2022-11-20T17:08:44;3.60;99.90
48912;DHT22;34722;52.108;5.044;2022-11-20T17:11:16;3.60;99.90
48912;DHT22;34722;52.108;5.044;2022-11-20T17:13:43;3.60;99.90
48912;DHT22;34722;52.108;5.044;2022-11-20T17:16:11;3.60;99.90
48912;DHT22;34722;52.108;5.044;2022-11-20T17:18:37;3.60;99.90
48912;DHT22;34722;52.108;5.044;2022-11-20T17:21:03;3.60;99.90
48912;DHT22;34722;52.108;5.044;2022-11-20T17:23:34;3.50;99.90
48912;DHT22;34722;52.108;5.044;2022-11-20T17:26:09;3.50;99.90
48912;DHT22;34722;52.108;5.044;2022-11-20T17:28:35;3.50;99.90